sensor_id;sensor_type;location;lat;lon;timestamp;pressure;altitude;pressure_sealevel;temperature;humidity
7888;BME280;3989;48.810;9.208;2023-05-19T00:01:11;99293.53;;;10.97;nan
7888;BME280;3989;48.810;9.208;2023-05-19T00:03:48;99287.19;;;10.90;nan
7888;BME280;3989;48.810;9.208;2023-05-19T00:06:21;99282.69;;;10.83;nan
7888;BME280;3989;48.810;9.208;2023-05-19T00:08:49;99267.69;;;10.66;nan
7888;BME280;3989;48.810;9.208;2023-05-19T00:11:16;99290.69;;;10.83;nan
7888;BME280;3989;48.810;9.208;2023-05-19T00:13:43;99282.00;;;10.73;nan
7888;BME280;3989;48.810;9.208;2023-05-19T00:16:13;99242.66;;;10.59;nan
7888;BME280;3989;48.810;9.208;2023-05-19T00:18:41;99241.34;;;10.63;nan
7888;BME280;3989;48.810;9.208;2023-05-19T00:21:08;99270.16;;;10.99;nan
7888;BME280;3989;48.810;9.208;2023-05-19T00:23:35;99287.97;;;11.15;nan
7888;BME280;3989;48.810;9.208;2023-05-19T00:26:01;99253.13;;;11.00;nan
7888;BME280;3989;48.810;9.208;2023-05-19T00:28:28;99287.97;;;11.23;nan
7888;BME280;3989;48.810;9.208;2023-05-19T00:30:55;99268.78;;;11.12;nan
7888;BME280;3989;48.810;9.208;2023-05-19T00:33:21;99288.97;;;11.30;nan
7888;BME280;3989;48.810;9.208;2023-05-19T00:35:49;99282.44;;;11.25;nan
7888;BME280;3989;48.810;9.208;2023-05-19T00:38:16;99276.09;;;11.26;nan
7888;BME280;3989;48.810;9.208;2023-05-19T00:40:42;99282.78;;;11.30;nan
7888;BME280;3989;48.810;9.208;2023-05-19T00:43:09;99230.28;;;10.98;nan
7888;BME280;3989;48.810;9.208;2023-05-19T00:45:36;99257.13;;;11.04;nan
7888;BME280;3989;48.810;9.208;2023-05-19T00:48:02;99282.13;;;11.20;nan
7888;BME280;3989;48.810;9.208;2023-05-19T00:50:29;99218.63;;;10.75;nan
7888;BME280;3989;48.810;9.208;2023-05-19T00:52:57;99284.16;;;11.10;nan
7888;BME280;3989;48.810;9.208;2023-05-19T00:55:26;99232.97;;;10.74;nan
7888;BME280;3989;48.810;9.208;2023-05-19T00:57:54;99284.53;;;10.98;nan
7888;BME280;3989;48.810;9.208;2023-05-19T01:00:21;99165.13;;;10.28;nan
7888;BME280;3989;48.810;9.208;2023-05-19T01:02:48;99270.66;;;10.87;nan
7888;BME280;3989;48.810;9.208;2023-05-19T01:05:16;99214.66;;;10.54;nan
7888;BME280;3989;48.810;9.208;2023-05-19T01:07:42;99268.84;;;10.87;nan
7888;BME280;3989;48.810;9.208;2023-05-19T01:10:12;99039.28;;;9.43;nan
7888;BME280;3989;48.810;9.208;2023-05-19T01:12:39;99275.19;;;10.94;nan
7888;BME280;3989;48.810;9.208;2023-05-19T01:15:07;99268.50;;;10.90;nan
7888;BME280;3989;48.810;9.208;2023-05-19T01:17:40;99267.66;;;10.98;nan
7888;BME280;3989;48.810;9.208;2023-05-19T01:20:15;99257.47;;;10.93;nan
7888;BME280;3989;48.810;9.208;2023-05-19T01:23:11;99234.81;;;10.81;nan
7888;BME280;3989;48.810;9.208;2023-05-19T01:26:08;99226.13;;;10.71;nan
7888;BME280;3989;48.810;9.208;2023-05-19T01:28:54;99281.84;;;10.98;nan
7888;BME280;3989;48.810;9.208;2023-05-19T01:31:29;99242.81;;;10.73;nan
7888;BME280;3989;48.810;9.208;2023-05-19T01:33:56;99256.81;;;10.83;nan
7888;BME280;3989;48.810;9.208;2023-05-19T01:36:25;99264.66;;;10.93;nan
7888;BME280;3989;48.810;9.208;2023-05-19T01:38:55;99280.00;;;10.99;nan
7888;BME280;3989;48.810;9.208;2023-05-19T01:41:22;99277.50;;;10.97;nan
7888;BME280;3989;48.810;9.208;2023-05-19T01:43:50;99147.13;;;10.22;nan
7888;BME280;3989;48.810;9.208;2023-05-19T01:46:18;99148.47;;;10.18;nan
7888;BME280;3989;48.810;9.208;2023-05-19T01:48:46;99102.94;;;9.87;nan
7888;BME280;3989;48.810;9.208;2023-05-19T01:51:13;99180.47;;;10.34;nan
7888;BME280;3989;48.810;9.208;2023-05-19T01:53:40;99279.84;;;10.92;nan
7888;BME280;3989;48.810;9.208;2023-05-19T01:56:06;99288.88;;;10.91;nan
7888;BME280;3989;48.810;9.208;2023-05-19T01:58:38;99073.09;;;9.67;nan
7888;BME280;3989;48.810;9.208;2023-05-19T02:01:15;99171.47;;;10.27;nan
7888;BME280;3989;48.810;9.208;2023-05-19T02:03:58;99223.63;;;10.53;nan
7888;BME280;3989;48.810;9.208;2023-05-19T02:06:34;99270.50;;;10.88;nan
7888;BME280;3989;48.810;9.208;2023-05-19T02:09:05;99270.66;;;10.87;nan
7888;BME280;3989;48.810;9.208;2023-05-19T02:11:36;99207.47;;;10.39;nan
7888;BME280;3989;48.810;9.208;2023-05-19T02:14:09;99255.66;;;10.70;nan
7888;BME280;3989;48.810;9.208;2023-05-19T02:16:41;99237.47;;;10.57;nan
7888;BME280;3989;48.810;9.208;2023-05-19T02:19:20;99274.69;;;10.75;nan
7888;BME280;3989;48.810;9.208;2023-05-19T02:21:47;99258.50;;;10.60;nan
7888;BME280;3989;48.810;9.208;2023-05-19T02:24:13;99185.13;;;10.16;nan
7888;BME280;3989;48.810;9.208;2023-05-19T02:26:40;99262.03;;;10.69;nan
7888;BME280;3989;48.810;9.208;2023-05-19T02:29:08;99188.59;;;10.08;nan
7888;BME280;3989;48.810;9.208;2023-05-19T02:31:34;99118.91;;;9.71;nan
7888;BME280;3989;48.810;9.208;2023-05-19T02:34:01;99129.75;;;9.69;nan
7888;BME280;3989;48.810;9.208;2023-05-19T02:38:59;99245.00;;;10.45;nan
7888;BME280;3989;48.810;9.208;2023-05-19T02:41:26;99281.03;;;10.66;nan
7888;BME280;3989;48.810;9.208;2023-05-19T02:43:52;99159.41;;;9.98;nan
7888;BME280;3989;48.810;9.208;2023-05-19T02:46:19;99284.88;;;10.71;nan
7888;BME280;3989;48.810;9.208;2023-05-19T02:48:46;99280.38;;;10.72;nan
7888;BME280;3989;48.810;9.208;2023-05-19T02:51:12;99295.53;;;10.71;nan
7888;BME280;3989;48.810;9.208;2023-05-19T02:53:40;99285.03;;;10.70;nan
7888;BME280;3989;48.810;9.208;2023-05-19T02:56:07;99264.50;;;10.70;nan
7888;BME280;3989;48.810;9.208;2023-05-19T02:58:33;99265.53;;;10.69;nan
7888;BME280;3989;48.810;9.208;2023-05-19T03:01:00;99256.53;;;10.62;nan
7888;BME280;3989;48.810;9.208;2023-05-19T03:03:27;99072.25;;;9.50;nan
7888;BME280;3989;48.810;9.208;2023-05-19T03:05:53;99254.34;;;10.66;nan
7888;BME280;3989;48.810;9.208;2023-05-19T03:08:20;99200.81;;;10.27;nan
7888;BME280;3989;48.810;9.208;2023-05-19T03:10:48;99147.44;;;9.94;nan
7888;BME280;3989;48.810;9.208;2023-05-19T03:13:15;99256.34;;;10.64;nan
7888;BME280;3989;48.810;9.208;2023-05-19T03:15:42;99120.91;;;9.77;nan
7888;BME280;3989;48.810;9.208;2023-05-19T03:18:09;99268.84;;;10.55;nan
7888;BME280;3989;48.810;9.208;2023-05-19T03:20:36;99209.50;;;10.21;nan
7888;BME280;3989;48.810;9.208;2023-05-19T03:23:03;99117.06;;;9.63;nan
7888;BME280;3989;48.810;9.208;2023-05-19T03:25:30;99175.94;;;9.94;nan
7888;BME280;3989;48.810;9.208;2023-05-19T03:27:58;99204.09;;;10.13;nan
7888;BME280;3989;48.810;9.208;2023-05-19T03:30:25;99175.41;;;9.90;nan
7888;BME280;3989;48.810;9.208;2023-05-19T03:32:52;99265.19;;;10.40;nan
7888;BME280;3989;48.810;9.208;2023-05-19T03:35:19;99265.53;;;10.37;nan
7888;BME280;3989;48.810;9.208;2023-05-19T03:37:46;99248.16;;;10.25;nan
7888;BME280;3989;48.810;9.208;2023-05-19T03:40:13;99257.31;;;10.22;nan
7888;BME280;3989;48.810;9.208;2023-05-19T03:42:53;99076.34;;;9.13;nan
7888;BME280;3989;48.810;9.208;2023-05-19T03:45:22;99207.91;;;9.86;nan
7888;BME280;3989;48.810;9.208;2023-05-19T03:47:53;99030.81;;;8.66;nan
7888;BME280;3989;48.810;9.208;2023-05-19T03:50:21;99064.25;;;8.76;nan
7888;BME280;3989;48.810;9.208;2023-05-19T03:52:48;98984.28;;;8.36;nan
7888;BME280;3989;48.810;9.208;2023-05-19T03:55:15;99268.13;;;10.05;nan
7888;BME280;3989;48.810;9.208;2023-05-19T03:57:44;99210.00;;;9.66;nan
7888;BME280;3989;48.810;9.208;2023-05-19T04:00:11;99267.59;;;10.01;nan
7888;BME280;3989;48.810;9.208;2023-05-19T04:02:40;99263.72;;;9.95;nan
7888;BME280;3989;48.810;9.208;2023-05-19T04:05:07;99276.13;;;10.05;nan
7888;BME280;3989;48.810;9.208;2023-05-19T04:07:33;99137.31;;;9.24;nan
7888;BME280;3989;48.810;9.208;2023-05-19T04:10:02;99175.97;;;9.44;nan
7888;BME280;3989;48.810;9.208;2023-05-19T04:12:29;99162.97;;;9.41;nan
7888;BME280;3989;48.810;9.208;2023-05-19T04:14:56;99278.97;;;10.11;nan
7888;BME280;3989;48.810;9.208;2023-05-19T04:17:26;99282.13;;;10.15;nan
7888;BME280;3989;48.810;9.208;2023-05-19T04:20:08;99201.03;;;9.67;nan
7888;BME280;3989;48.810;9.208;2023-05-19T04:22:35;99274.16;;;10.23;nan
7888;BME280;3989;48.810;9.208;2023-05-19T04:25:01;99277.53;;;10.33;nan
7888;BME280;3989;48.810;9.208;2023-05-19T04:27:29;99277.00;;;10.37;nan
7888;BME280;3989;48.810;9.208;2023-05-19T04:30:01;99279.00;;;10.35;nan
7888;BME280;3989;48.810;9.208;2023-05-19T04:32:28;99279.66;;;10.37;nan
7888;BME280;3989;48.810;9.208;2023-05-19T04:34:55;99283.03;;;10.47;nan
7888;BME280;3989;48.810;9.208;2023-05-19T04:37:24;99105.53;;;9.38;nan
7888;BME280;3989;48.810;9.208;2023-05-19T04:39:51;99232.84;;;10.27;nan
7888;BME280;3989;48.810;9.208;2023-05-19T04:42:18;99251.84;;;10.40;nan
7888;BME280;3989;48.810;9.208;2023-05-19T04:44:45;99264.69;;;10.52;nan
7888;BME280;3989;48.810;9.208;2023-05-19T04:47:13;99264.69;;;10.52;nan
7888;BME280;3989;48.810;9.208;2023-05-19T04:49:40;99294.22;;;10.75;nan
7888;BME280;3989;48.810;9.208;2023-05-19T04:52:09;99218.16;;;10.39;nan
7888;BME280;3989;48.810;9.208;2023-05-19T04:54:38;99293.03;;;10.78;nan
7888;BME280;3989;48.810;9.208;2023-05-19T04:57:06;99238.31;;;10.58;nan
7888;BME280;3989;48.810;9.208;2023-05-19T04:59:32;99289.53;;;10.93;nan
7888;BME280;3989;48.810;9.208;2023-05-19T05:01:59;99280.84;;;10.91;nan
7888;BME280;3989;48.810;9.208;2023-05-19T05:04:25;99264.50;;;10.86;nan
7888;BME280;3989;48.810;9.208;2023-05-19T05:06:52;99291.66;;;11.06;nan
7888;BME280;3989;48.810;9.208;2023-05-19T05:09:19;99209.78;;;10.74;nan
7888;BME280;3989;48.810;9.208;2023-05-19T05:11:47;99291.16;;;11.27;nan
7888;BME280;3989;48.810;9.208;2023-05-19T05:14:14;99291.63;;;11.30;nan
7888;BME280;3989;48.810;9.208;2023-05-19T05:16:41;99172.28;;;10.51;nan
7888;BME280;3989;48.810;9.208;2023-05-19T05:19:09;99026.13;;;9.66;nan
7888;BME280;3989;48.810;9.208;2023-05-19T05:21:36;98996.50;;;9.69;nan
7888;BME280;3989;48.810;9.208;2023-05-19T05:24:03;99284.84;;;11.58;nan
7888;BME280;3989;48.810;9.208;2023-05-19T05:26:32;99280.66;;;11.64;nan
7888;BME280;3989;48.810;9.208;2023-05-19T05:29:00;99219.63;;;11.37;nan
7888;BME280;3989;48.810;9.208;2023-05-19T05:31:27;99201.75;;;11.37;nan
7888;BME280;3989;48.810;9.208;2023-05-19T05:34:08;99259.91;;;11.82;nan
7888;BME280;3989;48.810;9.208;2023-05-19T05:36:35;99041.03;;;10.48;nan
7888;BME280;3989;48.810;9.208;2023-05-19T05:39:01;99282.34;;;12.04;nan
7888;BME280;3989;48.810;9.208;2023-05-19T05:41:29;99211.34;;;11.63;nan
7888;BME280;3989;48.810;9.208;2023-05-19T05:44:01;99278.84;;;12.26;nan
7888;BME280;3989;48.810;9.208;2023-05-19T05:46:27;99053.81;;;10.69;nan
7888;BME280;3989;48.810;9.208;2023-05-19T05:48:54;99281.50;;;12.03;nan
7888;BME280;3989;48.810;9.208;2023-05-19T05:51:22;99274.47;;;12.02;nan
7888;BME280;3989;48.810;9.208;2023-05-19T05:53:50;99220.31;;;11.78;nan
7888;BME280;3989;48.810;9.208;2023-05-19T05:56:18;99255.63;;;11.96;nan
7888;BME280;3989;48.810;9.208;2023-05-19T05:58:45;99117.00;;;11.15;nan
7888;BME280;3989;48.810;9.208;2023-05-19T06:01:13;99295.63;;;12.20;nan
7888;BME280;3989;48.810;9.208;2023-05-19T06:03:42;99241.31;;;11.89;nan
7888;BME280;3989;48.810;9.208;2023-05-19T06:06:09;99312.22;;;12.38;nan
7888;BME280;3989;48.810;9.208;2023-05-19T06:08:36;99275.59;;;12.39;nan
7888;BME280;3989;48.810;9.208;2023-05-19T06:11:03;99292.13;;;12.65;nan
7888;BME280;3989;48.810;9.208;2023-05-19T06:13:32;99178.50;;;12.07;nan
7888;BME280;3989;48.810;9.208;2023-05-19T06:15:59;99294.41;;;12.91;nan
7888;BME280;3989;48.810;9.208;2023-05-19T06:18:27;99167.28;;;12.27;nan
7888;BME280;3989;48.810;9.208;2023-05-19T06:20:54;99232.59;;;12.78;nan
7888;BME280;3989;48.810;9.208;2023-05-19T06:23:21;99282.31;;;13.32;nan
7888;BME280;3989;48.810;9.208;2023-05-19T06:25:48;99280.44;;;13.47;nan
7888;BME280;3989;48.810;9.208;2023-05-19T06:28:14;99100.03;;;12.44;nan
7888;BME280;3989;48.810;9.208;2023-05-19T06:30:41;99022.38;;;12.00;nan
7888;BME280;3989;48.810;9.208;2023-05-19T06:33:08;99105.53;;;12.66;nan
7888;BME280;3989;48.810;9.208;2023-05-19T06:35:36;99275.63;;;13.87;nan
7888;BME280;3989;48.810;9.208;2023-05-19T06:38:03;99270.56;;;14.13;nan
7888;BME280;3989;48.810;9.208;2023-05-19T06:40:30;99155.19;;;13.56;nan
7888;BME280;3989;48.810;9.208;2023-05-19T06:42:57;99159.63;;;13.49;nan
7888;BME280;3989;48.810;9.208;2023-05-19T06:45:26;99281.75;;;14.16;nan
7888;BME280;3989;48.810;9.208;2023-05-19T06:47:53;99189.03;;;13.57;nan
7888;BME280;3989;48.810;9.208;2023-05-19T06:50:22;99050.28;;;13.08;nan
7888;BME280;3989;48.810;9.208;2023-05-19T06:52:53;99240.13;;;14.42;nan
7888;BME280;3989;48.810;9.208;2023-05-19T06:55:21;99116.78;;;14.19;nan
7888;BME280;3989;48.810;9.208;2023-05-19T06:57:48;99263.84;;;15.43;nan
7888;BME280;3989;48.810;9.208;2023-05-19T07:00:15;99101.22;;;14.91;nan
7888;BME280;3989;48.810;9.208;2023-05-19T07:02:48;99270.22;;;16.17;nan
7888;BME280;3989;48.810;9.208;2023-05-19T07:05:22;99160.22;;;15.47;nan
7888;BME280;3989;48.810;9.208;2023-05-19T07:07:49;99104.47;;;15.68;nan
7888;BME280;3989;48.810;9.208;2023-05-19T07:10:17;99259.38;;;16.77;nan
7888;BME280;3989;48.810;9.208;2023-05-19T07:12:45;99251.09;;;16.66;nan
7888;BME280;3989;48.810;9.208;2023-05-19T07:15:12;99233.38;;;16.17;nan
7888;BME280;3989;48.810;9.208;2023-05-19T07:17:38;99244.31;;;16.09;nan
7888;BME280;3989;48.810;9.208;2023-05-19T07:20:09;99283.84;;;15.96;nan
7888;BME280;3989;48.810;9.208;2023-05-19T07:22:36;99220.53;;;15.59;nan
7888;BME280;3989;48.810;9.208;2023-05-19T07:25:04;99265.16;;;15.88;nan
7888;BME280;3989;48.810;9.208;2023-05-19T07:27:32;99269.63;;;15.74;nan
7888;BME280;3989;48.810;9.208;2023-05-19T07:29:58;99276.91;;;15.80;nan
7888;BME280;3989;48.810;9.208;2023-05-19T07:32:25;99251.88;;;15.80;nan
7888;BME280;3989;48.810;9.208;2023-05-19T07:34:52;99200.00;;;15.51;nan
7888;BME280;3989;48.810;9.208;2023-05-19T07:37:18;99237.19;;;15.82;nan
7888;BME280;3989;48.810;9.208;2023-05-19T07:39:45;99275.44;;;16.18;nan
7888;BME280;3989;48.810;9.208;2023-05-19T07:42:11;99262.81;;;16.39;nan
7888;BME280;3989;48.810;9.208;2023-05-19T07:44:39;99175.94;;;16.04;nan
7888;BME280;3989;48.810;9.208;2023-05-19T07:47:06;99248.81;;;16.63;nan
7888;BME280;3989;48.810;9.208;2023-05-19T07:49:33;99263.72;;;16.78;nan
7888;BME280;3989;48.810;9.208;2023-05-19T07:51:59;99242.16;;;16.98;nan
7888;BME280;3989;48.810;9.208;2023-05-19T07:54:26;99260.63;;;17.01;nan
7888;BME280;3989;48.810;9.208;2023-05-19T07:56:52;99239.66;;;17.03;nan
7888;BME280;3989;48.810;9.208;2023-05-19T07:59:20;99252.53;;;17.08;nan
7888;BME280;3989;48.810;9.208;2023-05-19T08:01:48;99245.88;;;17.17;nan
7888;BME280;3989;48.810;9.208;2023-05-19T08:04:14;99240.47;;;17.17;nan
7888;BME280;3989;48.810;9.208;2023-05-19T08:06:41;99214.38;;;16.85;nan
7888;BME280;3989;48.810;9.208;2023-05-19T08:09:08;99248.59;;;16.71;nan
7888;BME280;3989;48.810;9.208;2023-05-19T08:11:35;99145.03;;;15.73;nan
7888;BME280;3989;48.810;9.208;2023-05-19T08:14:01;99215.75;;;16.08;nan
7888;BME280;3989;48.810;9.208;2023-05-19T08:16:30;99206.97;;;15.87;nan
7888;BME280;3989;48.810;9.208;2023-05-19T08:18:58;99029.41;;;14.72;nan
7888;BME280;3989;48.810;9.208;2023-05-19T08:21:27;99149.16;;;15.29;nan
7888;BME280;3989;48.810;9.208;2023-05-19T08:23:57;99116.81;;;15.02;nan
7888;BME280;3989;48.810;9.208;2023-05-19T08:26:24;99243.63;;;15.94;nan
7888;BME280;3989;48.810;9.208;2023-05-19T08:28:53;99185.09;;;15.49;nan
7888;BME280;3989;48.810;9.208;2023-05-19T08:31:20;99133.34;;;15.47;nan
7888;BME280;3989;48.810;9.208;2023-05-19T08:33:46;99147.69;;;15.54;nan
7888;BME280;3989;48.810;9.208;2023-05-19T08:36:14;99108.56;;;15.58;nan
7888;BME280;3989;48.810;9.208;2023-05-19T08:38:41;99126.19;;;15.80;nan
7888;BME280;3989;48.810;9.208;2023-05-19T08:41:08;99219.78;;;16.58;nan
7888;BME280;3989;48.810;9.208;2023-05-19T08:43:35;99144.09;;;16.14;nan
7888;BME280;3989;48.810;9.208;2023-05-19T08:46:02;99175.16;;;16.36;nan
7888;BME280;3989;48.810;9.208;2023-05-19T08:48:32;99166.47;;;16.34;nan
7888;BME280;3989;48.810;9.208;2023-05-19T08:51:07;99226.00;;;16.85;nan
7888;BME280;3989;48.810;9.208;2023-05-19T08:53:39;98928.41;;;14.91;nan
7888;BME280;3989;48.810;9.208;2023-05-19T08:56:12;99214.75;;;16.42;nan
7888;BME280;3989;48.810;9.208;2023-05-19T08:58:40;99223.25;;;16.46;nan
7888;BME280;3989;48.810;9.208;2023-05-19T09:01:08;99160.44;;;15.99;nan
7888;BME280;3989;48.810;9.208;2023-05-19T09:03:36;99172.28;;;16.44;nan
7888;BME280;3989;48.810;9.208;2023-05-19T09:06:04;99190.78;;;16.67;nan
7888;BME280;3989;48.810;9.208;2023-05-19T09:08:32;99223.06;;;16.87;nan
7888;BME280;3989;48.810;9.208;2023-05-19T09:11:00;99201.31;;;16.88;nan
7888;BME280;3989;48.810;9.208;2023-05-19T09:13:27;99243.84;;;17.06;nan
7888;BME280;3989;48.810;9.208;2023-05-19T09:15:55;99169.59;;;16.70;nan
7888;BME280;3989;48.810;9.208;2023-05-19T09:18:22;99224.97;;;16.93;nan
7888;BME280;3989;48.810;9.208;2023-05-19T09:20:50;99108.47;;;16.12;nan
7888;BME280;3989;48.810;9.208;2023-05-19T09:23:26;99106.81;;;16.11;nan
7888;BME280;3989;48.810;9.208;2023-05-19T09:25:54;99166.91;;;16.38;nan
7888;BME280;3989;48.810;9.208;2023-05-19T09:28:27;99203.19;;;16.68;nan
7888;BME280;3989;48.810;9.208;2023-05-19T09:31:01;99110.31;;;16.18;nan
7888;BME280;3989;48.810;9.208;2023-05-19T09:33:28;99134.56;;;16.24;nan
7888;BME280;3989;48.810;9.208;2023-05-19T09:35:56;99221.44;;;16.86;nan
7888;BME280;3989;48.810;9.208;2023-05-19T09:38:23;99208.16;;;16.71;nan
7888;BME280;3989;48.810;9.208;2023-05-19T09:40:50;99221.63;;;16.77;nan
7888;BME280;3989;48.810;9.208;2023-05-19T09:43:17;99163.41;;;16.63;nan
7888;BME280;3989;48.810;9.208;2023-05-19T09:45:45;99179.34;;;16.91;nan
7888;BME280;3989;48.810;9.208;2023-05-19T09:48:13;99166.94;;;16.57;nan
7888;BME280;3989;48.810;9.208;2023-05-19T09:50:41;99217.72;;;16.80;nan
7888;BME280;3989;48.810;9.208;2023-05-19T09:53:08;99187.84;;;16.55;nan
7888;BME280;3989;48.810;9.208;2023-05-19T09:55:38;99206.88;;;17.06;nan
7888;BME280;3989;48.810;9.208;2023-05-19T09:58:06;99182.03;;;16.98;nan
7888;BME280;3989;48.810;9.208;2023-05-19T10:00:32;99192.97;;;17.09;nan
7888;BME280;3989;48.810;9.208;2023-05-19T10:03:02;99157.31;;;17.14;nan
7888;BME280;3989;48.810;9.208;2023-05-19T10:05:33;99072.63;;;16.64;nan
7888;BME280;3989;48.810;9.208;2023-05-19T10:08:06;98941.50;;;16.25;nan
7888;BME280;3989;48.810;9.208;2023-05-19T10:11:07;99020.56;;;16.70;nan
7888;BME280;3989;48.810;9.208;2023-05-19T10:13:44;99214.78;;;17.85;nan
7888;BME280;3989;48.810;9.208;2023-05-19T10:16:12;98905.94;;;15.84;nan
7888;BME280;3989;48.810;9.208;2023-05-19T10:22:00;99108.59;;;17.02;nan
7888;BME280;3989;48.810;9.208;2023-05-19T10:25:09;99209.63;;;17.77;nan
7888;BME280;3989;48.810;9.208;2023-05-19T10:27:56;99109.25;;;16.91;nan
7888;BME280;3989;48.810;9.208;2023-05-19T10:30:32;98909.69;;;15.83;nan
7888;BME280;3989;48.810;9.208;2023-05-19T10:33:02;99183.81;;;17.30;nan
7888;BME280;3989;48.810;9.208;2023-05-19T10:35:41;99187.78;;;17.27;nan
7888;BME280;3989;48.810;9.208;2023-05-19T10:38:31;99203.97;;;17.21;nan
7888;BME280;3989;48.810;9.208;2023-05-19T10:41:06;99021.03;;;16.34;nan
7888;BME280;3989;48.810;9.208;2023-05-19T10:43:50;98952.09;;;16.00;nan
7888;BME280;3989;48.810;9.208;2023-05-19T10:46:23;99047.75;;;16.55;nan
7888;BME280;3989;48.810;9.208;2023-05-19T10:48:51;99123.16;;;16.82;nan
7888;BME280;3989;48.810;9.208;2023-05-19T10:51:18;99154.38;;;17.28;nan
7888;BME280;3989;48.810;9.208;2023-05-19T10:53:54;99214.75;;;17.27;nan
7888;BME280;3989;48.810;9.208;2023-05-19T10:56:33;98952.53;;;15.58;nan
7888;BME280;3989;48.810;9.208;2023-05-19T10:59:01;98929.75;;;15.28;nan
7888;BME280;3989;48.810;9.208;2023-05-19T11:01:31;99047.78;;;15.83;nan
7888;BME280;3989;48.810;9.208;2023-05-19T11:04:04;98942.72;;;15.11;nan
7888;BME280;3989;48.810;9.208;2023-05-19T11:06:33;99032.44;;;15.77;nan
7888;BME280;3989;48.810;9.208;2023-05-19T11:09:10;99015.03;;;15.53;nan
7888;BME280;3989;48.810;9.208;2023-05-19T11:11:47;98935.94;;;15.28;nan
7888;BME280;3989;48.810;9.208;2023-05-19T11:14:16;98940.66;;;15.19;nan
7888;BME280;3989;48.810;9.208;2023-05-19T11:16:46;99016.22;;;15.44;nan
7888;BME280;3989;48.810;9.208;2023-05-19T11:19:17;99091.25;;;16.00;nan
7888;BME280;3989;48.810;9.208;2023-05-19T11:21:49;98940.88;;;15.11;nan
7888;BME280;3989;48.810;9.208;2023-05-19T11:24:34;99063.72;;;16.04;nan
7888;BME280;3989;48.810;9.208;2023-05-19T11:27:23;99096.63;;;16.39;nan
7888;BME280;3989;48.810;9.208;2023-05-19T11:30:09;98940.09;;;15.44;nan
7888;BME280;3989;48.810;9.208;2023-05-19T11:32:39;98901.38;;;15.38;nan
7888;BME280;3989;48.810;9.208;2023-05-19T11:35:07;99189.91;;;17.06;nan
7888;BME280;3989;48.810;9.208;2023-05-19T11:37:34;98949.00;;;15.38;nan
7888;BME280;3989;48.810;9.208;2023-05-19T11:40:08;99034.09;;;15.85;nan
7888;BME280;3989;48.810;9.208;2023-05-19T11:42:35;98904.28;;;15.17;nan
7888;BME280;3989;48.810;9.208;2023-05-19T11:45:03;98926.63;;;15.17;nan
7888;BME280;3989;48.810;9.208;2023-05-19T11:47:30;98924.75;;;15.11;nan
7888;BME280;3989;48.810;9.208;2023-05-19T11:49:58;99027.69;;;15.92;nan
7888;BME280;3989;48.810;9.208;2023-05-19T11:52:25;99063.28;;;16.53;nan
7888;BME280;3989;48.810;9.208;2023-05-19T11:54:53;98931.63;;;15.99;nan
7888;BME280;3989;48.810;9.208;2023-05-19T11:57:22;98995.72;;;16.42;nan
7888;BME280;3989;48.810;9.208;2023-05-19T11:59:49;99184.16;;;17.60;nan
7888;BME280;3989;48.810;9.208;2023-05-19T12:02:19;99064.69;;;16.75;nan
7888;BME280;3989;48.810;9.208;2023-05-19T12:04:46;99114.03;;;16.89;nan
7888;BME280;3989;48.810;9.208;2023-05-19T12:07:14;99050.00;;;16.52;nan
7888;BME280;3989;48.810;9.208;2023-05-19T12:09:42;98994.75;;;16.03;nan
7888;BME280;3989;48.810;9.208;2023-05-19T12:12:12;99153.00;;;16.87;nan
7888;BME280;3989;48.810;9.208;2023-05-19T12:14:40;99175.34;;;17.07;nan
7888;BME280;3989;48.810;9.208;2023-05-19T12:17:11;98954.38;;;15.77;nan
7888;BME280;3989;48.810;9.208;2023-05-19T12:19:38;99102.44;;;16.69;nan
7888;BME280;3989;48.810;9.208;2023-05-19T12:22:06;99170.56;;;17.22;nan
7888;BME280;3989;48.810;9.208;2023-05-19T12:24:33;99157.84;;;17.36;nan
7888;BME280;3989;48.810;9.208;2023-05-19T12:27:06;99165.25;;;17.53;nan
7888;BME280;3989;48.810;9.208;2023-05-19T12:29:32;99171.91;;;17.64;nan
7888;BME280;3989;48.810;9.208;2023-05-19T12:32:01;99177.59;;;17.80;nan
7888;BME280;3989;48.810;9.208;2023-05-19T12:34:28;99013.88;;;16.86;nan
7888;BME280;3989;48.810;9.208;2023-05-19T12:36:55;99175.78;;;17.74;nan
7888;BME280;3989;48.810;9.208;2023-05-19T12:39:23;99093.75;;;17.31;nan
7888;BME280;3989;48.810;9.208;2023-05-19T12:41:49;99156.53;;;17.58;nan
7888;BME280;3989;48.810;9.208;2023-05-19T12:44:16;99158.84;;;17.48;nan
7888;BME280;3989;48.810;9.208;2023-05-19T12:46:42;99167.34;;;17.51;nan
7888;BME280;3989;48.810;9.208;2023-05-19T12:49:11;99129.75;;;16.99;nan
7888;BME280;3989;48.810;9.208;2023-05-19T12:51:37;99164.81;;;16.99;nan
7888;BME280;3989;48.810;9.208;2023-05-19T12:54:04;99059.78;;;16.20;nan
7888;BME280;3989;48.810;9.208;2023-05-19T12:56:31;99130.41;;;16.42;nan
7888;BME280;3989;48.810;9.208;2023-05-19T12:58:59;99178.09;;;16.41;nan
7888;BME280;3989;48.810;9.208;2023-05-19T13:01:25;99173.28;;;16.23;nan
7888;BME280;3989;48.810;9.208;2023-05-19T13:03:54;99060.69;;;15.40;nan
7888;BME280;3989;48.810;9.208;2023-05-19T13:06:22;99098.00;;;15.50;nan
7888;BME280;3989;48.810;9.208;2023-05-19T13:08:49;99183.81;;;15.92;nan
7888;BME280;3989;48.810;9.208;2023-05-19T13:11:15;99188.38;;;15.98;nan
7888;BME280;3989;48.810;9.208;2023-05-19T13:13:42;99178.66;;;16.04;nan
7888;BME280;3989;48.810;9.208;2023-05-19T13:16:08;99086.78;;;15.46;nan
7888;BME280;3989;48.810;9.208;2023-05-19T13:18:35;99169.97;;;16.15;nan
7888;BME280;3989;48.810;9.208;2023-05-19T13:21:02;99126.47;;;16.05;nan
7888;BME280;3989;48.810;9.208;2023-05-19T13:23:31;99117.34;;;16.06;nan
7888;BME280;3989;48.810;9.208;2023-05-19T13:25:58;99149.25;;;16.35;nan
7888;BME280;3989;48.810;9.208;2023-05-19T13:28:25;99159.22;;;16.54;nan
7888;BME280;3989;48.810;9.208;2023-05-19T13:30:52;99155.50;;;16.68;nan
7888;BME280;3989;48.810;9.208;2023-05-19T13:33:19;99114.28;;;16.55;nan
7888;BME280;3989;48.810;9.208;2023-05-19T13:35:45;99112.81;;;16.65;nan
7888;BME280;3989;48.810;9.208;2023-05-19T13:38:13;99157.34;;;16.88;nan
7888;BME280;3989;48.810;9.208;2023-05-19T13:40:41;99122.16;;;16.69;nan
7888;BME280;3989;48.810;9.208;2023-05-19T13:43:09;99149.69;;;16.71;nan
7888;BME280;3989;48.810;9.208;2023-05-19T13:45:36;99147.41;;;16.75;nan
7888;BME280;3989;48.810;9.208;2023-05-19T13:48:03;99146.16;;;16.77;nan
7888;BME280;3989;48.810;9.208;2023-05-19T13:50:31;99137.28;;;16.64;nan
7888;BME280;3989;48.810;9.208;2023-05-19T13:52:58;99114.88;;;16.44;nan
7888;BME280;3989;48.810;9.208;2023-05-19T13:55:25;99094.59;;;16.28;nan
7888;BME280;3989;48.810;9.208;2023-05-19T13:57:53;99030.16;;;15.87;nan
7888;BME280;3989;48.810;9.208;2023-05-19T14:00:20;99100.16;;;16.33;nan